Time;durP1;ratioP1;P1;durP2;ratioP2;P2;SDS_P1;SDS_P2;PMS_P1;PMS_P2;Temp;Humidity;BMP_temperature;BMP_pressure;BME280_temperature;BME280_humidity;BME280_pressure;Samples;Min_cycle;Max_cycle;Signal;HPM_P1;HPM_P2
2022/03/20 00:01:23;;;;;;;9.47;2.70;;;;;;;;;;5033791;28;21190;-13
2022/03/20 00:03:51;;;;;;;11.13;2.58;;;;;;;;;;5029447;28;20285;-14
2022/03/20 00:06:18;;;;;;;20.27;2.90;;;;;;;;;;5030797;28;20235;-13
2022/03/20 00:08:45;;;;;;;5.95;2.58;;;;;;;;;;5033492;28;20234;-13
2022/03/20 00:11:12;;;;;;;10.48;2.55;;;;;;;;;;5032545;28;20858;-14
2022/03/20 00:13:39;;;;;;;9.48;2.60;;;;;;;;;;5033198;28;20231;-14
2022/03/20 00:16:06;;;;;;;4.45;2.50;;;;;;;;;;5034253;28;21016;-13
2022/03/20 00:18:34;;;;;;;7.55;2.60;;;;;;;;;;5030480;28;20227;-14
2022/03/20 00:21:01;;;;;;;8.98;3.22;;;;;;;;;;5033230;28;20242;-14
2022/03/20 00:23:27;;;;;;;6.47;3.08;;;;;;;;;;5032520;28;20346;-14
2022/03/20 00:25:55;;;;;;;7.55;2.97;;;;;;;;;;5030733;28;20234;-14
2022/03/20 00:28:23;;;;;;;5.05;2.97;;;;;;;;;;5038817;28;20242;-14
2022/03/20 00:30:50;;;;;;;9.15;3.67;;;;;;;;;;5052566;28;20228;-14
2022/03/20 00:33:17;;;;;;;15.15;3.05;;;;;;;;;;5043043;28;20701;-13
2022/03/20 00:35:44;;;;;;;12.52;4.00;;;;;;;;;;5033545;28;20227;-13
2022/03/20 00:38:11;;;;;;;7.57;3.58;;;;;;;;;;5013675;28;20228;-13
2022/03/20 00:40:38;;;;;;;4.65;3.63;;;;;;;;;;5013051;28;20219;-13
2022/03/20 00:43:05;;;;;;;4.80;3.42;;;;;;;;;;5013367;28;20733;-13
2022/03/20 00:45:32;;;;;;;6.43;3.40;;;;;;;;;;5033151;28;20239;-13
2022/03/20 00:47:59;;;;;;;9.07;3.67;;;;;;;;;;5032135;28;20226;-13
2022/03/20 00:50:26;;;;;;;10.65;3.75;;;;;;;;;;5033338;28;20231;-14
2022/03/20 00:52:53;;;;;;;6.50;3.28;;;;;;;;;;5033598;28;20237;-13
2022/03/20 00:55:20;;;;;;;5.18;3.40;;;;;;;;;;5022867;28;21044;-13
2022/03/20 00:57:47;;;;;;;4.43;3.38;;;;;;;;;;5020945;28;20229;-14
2022/03/20 01:00:16;;;;;;;6.80;3.65;;;;;;;;;;5050493;28;20237;-14
2022/03/20 01:02:43;;;;;;;7.32;3.90;;;;;;;;;;5046269;28;20278;-14
2022/03/20 01:05:10;;;;;;;6.70;4.32;;;;;;;;;;5030901;28;20770;-13
2022/03/20 01:07:37;;;;;;;5.65;3.92;;;;;;;;;;5028072;28;20227;-14
2022/03/20 01:10:04;;;;;;;6.30;3.75;;;;;;;;;;5028516;28;20234;-14
2022/03/20 01:12:33;;;;;;;4.97;3.13;;;;;;;;;;5031486;28;20238;-14
2022/03/20 01:15:00;;;;;;;5.55;3.80;;;;;;;;;;5032230;28;20238;-14
2022/03/20 01:17:27;;;;;;;4.45;3.70;;;;;;;;;;5052246;28;20238;-14
2022/03/20 01:19:54;;;;;;;5.60;3.85;;;;;;;;;;5052782;28;20222;-14
2022/03/20 01:22:21;;;;;;;4.70;3.67;;;;;;;;;;5052124;28;20321;-14
2022/03/20 01:24:48;;;;;;;6.45;3.97;;;;;;;;;;5046263;28;20249;-14
2022/03/20 01:27:16;;;;;;;4.47;3.42;;;;;;;;;;5032451;28;20265;-14
2022/03/20 01:29:43;;;;;;;6.03;3.90;;;;;;;;;;5049154;28;20237;-14
2022/03/20 01:32:10;;;;;;;8.20;4.38;;;;;;;;;;5052456;28;20883;-14
2022/03/20 01:34:37;;;;;;;5.20;3.30;;;;;;;;;;5052646;28;20221;-14
2022/03/20 01:37:05;;;;;;;4.85;3.63;;;;;;;;;;5034164;28;20246;-13
2022/03/20 01:39:32;;;;;;;5.78;3.30;;;;;;;;;;5032582;28;20231;-14
2022/03/20 01:42:02;;;;;;;8.90;3.35;;;;;;;;;;5032359;28;20958;-13
2022/03/20 01:44:29;;;;;;;3.75;2.90;;;;;;;;;;5032624;28;20603;-14
2022/03/20 01:46:56;;;;;;;5.78;3.20;;;;;;;;;;5040514;28;20961;-14
2022/03/20 01:49:23;;;;;;;6.10;3.33;;;;;;;;;;5032507;28;20242;-13
2022/03/20 01:54:36;;;;;;;5.85;3.00;;;;;;;;;;5031974;28;20230;-13
2022/03/20 01:57:03;;;;;;;5.00;3.10;;;;;;;;;;5032028;28;20238;-13
2022/03/20 01:59:29;;;;;;;6.22;3.58;;;;;;;;;;5046357;28;20230;-13
2022/03/20 02:01:56;;;;;;;6.40;3.30;;;;;;;;;;5052056;28;20218;-13
2022/03/20 02:04:24;;;;;;;5.22;2.80;;;;;;;;;;5052071;28;20261;-13
2022/03/20 02:06:51;;;;;;;4.38;2.90;;;;;;;;;;5051974;28;20210;-13
2022/03/20 02:09:18;;;;;;;7.25;3.17;;;;;;;;;;5041658;28;20993;-13
2022/03/20 02:11:47;;;;;;;4.05;3.00;;;;;;;;;;5032185;28;20223;-13
2022/03/20 02:14:14;;;;;;;5.05;2.78;;;;;;;;;;5032204;28;20242;-13
2022/03/20 02:16:41;;;;;;;6.05;3.05;;;;;;;;;;5045408;28;20225;-13
2022/03/20 02:19:08;;;;;;;6.10;3.22;;;;;;;;;;5050231;28;20230;-13
2022/03/20 02:21:36;;;;;;;4.32;2.97;;;;;;;;;;5018248;28;20313;-13
2022/03/20 02:24:03;;;;;;;5.88;3.45;;;;;;;;;;5012237;28;20698;-13
2022/03/20 02:26:30;;;;;;;8.00;3.40;;;;;;;;;;5012074;28;20766;-13
2022/03/20 02:28:58;;;;;;;5.88;3.25;;;;;;;;;;5032050;28;20237;-13
2022/03/20 02:31:25;;;;;;;5.20;3.25;;;;;;;;;;5041054;28;20230;-13
2022/03/20 02:33:52;;;;;;;4.40;3.15;;;;;;;;;;5032260;28;20234;-13
2022/03/20 02:36:19;;;;;;;4.38;3.35;;;;;;;;;;5031693;28;20242;-13
2022/03/20 02:38:46;;;;;;;5.78;3.38;;;;;;;;;;5031741;28;20227;-13
2022/03/20 02:41:16;;;;;;;5.00;3.13;;;;;;;;;;5031355;28;20211;-13
2022/03/20 02:43:43;;;;;;;5.25;2.92;;;;;;;;;;5031064;28;20238;-13
2022/03/20 02:46:10;;;;;;;4.07;3.13;;;;;;;;;;5040917;28;20233;-13
2022/03/20 02:48:40;;;;;;;5.20;3.47;;;;;;;;;;5053648;28;20851;-13
2022/03/20 02:51:07;;;;;;;4.10;3.15;;;;;;;;;;5055201;28;20221;-13
2022/03/20 02:53:36;;;;;;;5.85;3.40;;;;;;;;;;5042564;28;20701;-14
2022/03/20 02:56:04;;;;;;;4.40;3.17;;;;;;;;;;5034841;28;20227;-13
2022/03/20 02:58:31;;;;;;;5.43;3.50;;;;;;;;;;5043358;28;20226;-13
2022/03/20 03:00:58;;;;;;;7.40;3.63;;;;;;;;;;5054525;28;20724;-14
2022/03/20 03:03:25;;;;;;;5.30;3.53;;;;;;;;;;5051432;28;20690;-13
2022/03/20 03:05:56;;;;;;;5.63;3.70;;;;;;;;;;5033815;28;20714;-13
2022/03/20 03:11:08;;;;;;;6.28;3.90;;;;;;;;;;5034896;28;20227;-13
2022/03/20 03:13:35;;;;;;;6.18;3.80;;;;;;;;;;5034609;28;20230;-13
2022/03/20 03:16:02;;;;;;;5.47;3.75;;;;;;;;;;5042314;28;20226;-12
2022/03/20 03:18:29;;;;;;;8.70;3.67;;;;;;;;;;5054469;28;20228;-13
2022/03/20 03:23:36;;;;;;;5.35;3.97;;;;;;;;;;5034656;28;20242;-15
2022/03/20 03:26:06;;;;;;;7.70;4.38;;;;;;;;;;5042853;28;20226;-14
2022/03/20 03:28:36;;;;;;;6.68;3.72;;;;;;;;;;5054383;28;20226;-14
2022/03/20 03:31:04;;;;;;;10.85;4.30;;;;;;;;;;5054482;28;20322;-15
2022/03/20 03:33:31;;;;;;;10.25;3.88;;;;;;;;;;5053443;28;20289;-15
2022/03/20 03:35:58;;;;;;;10.20;4.50;;;;;;;;;;5053346;28;20317;-15
2022/03/20 03:38:26;;;;;;;5.93;4.43;;;;;;;;;;5052427;28;20246;-15
2022/03/20 03:40:54;;;;;;;8.13;4.30;;;;;;;;;;5053285;28;20232;-15
2022/03/20 03:43:22;;;;;;;6.80;4.40;;;;;;;;;;5054225;28;20226;-15
2022/03/20 03:45:49;;;;;;;9.50;4.50;;;;;;;;;;5054119;28;20234;-15
2022/03/20 03:48:18;;;;;;;6.22;4.28;;;;;;;;;;5053569;28;20232;-15
2022/03/20 03:50:45;;;;;;;6.80;5.20;;;;;;;;;;5054356;28;20229;-14
2022/03/20 03:53:12;;;;;;;7.35;4.63;;;;;;;;;;5045287;28;20229;-15
2022/03/20 03:55:43;;;;;;;7.57;5.18;;;;;;;;;;5035657;28;20963;-15
2022/03/20 03:58:10;;;;;;;6.97;4.90;;;;;;;;;;5052852;28;21063;-15
2022/03/20 04:00:37;;;;;;;7.45;4.82;;;;;;;;;;5037705;28;20221;-15
2022/03/20 04:03:04;;;;;;;10.68;5.10;;;;;;;;;;5054125;28;20226;-15
2022/03/20 04:05:31;;;;;;;8.10;4.55;;;;;;;;;;5054037;28;20270;-15
2022/03/20 04:07:58;;;;;;;7.70;5.43;;;;;;;;;;5053837;28;20214;-15
2022/03/20 04:10:25;;;;;;;6.32;5.15;;;;;;;;;;5053453;28;20241;-15
2022/03/20 04:12:52;;;;;;;8.27;5.85;;;;;;;;;;5053870;28;20238;-14
2022/03/20 04:15:24;;;;;;;7.72;5.30;;;;;;;;;;5051207;28;20226;-15
2022/03/20 04:17:51;;;;;;;6.68;5.25;;;;;;;;;;5033905;28;20332;-15
2022/03/20 04:20:18;;;;;;;9.07;5.85;;;;;;;;;;5034811;28;20694;-15
2022/03/20 04:23:43;;;;;;;7.20;6.00;;;;;;;;;;5052133;28;20340;-15
2022/03/20 04:25:32;;;;;;;5.95;4.93;;;;;;;;;;5053259;28;20245;-14
2022/03/20 04:27:59;;;;;;;7.03;5.43;;;;;;;;;;5053236;28;20240;-14
2022/03/20 04:30:26;;;;;;;8.07;5.95;;;;;;;;;;5056881;28;21114;-14
2022/03/20 04:32:53;;;;;;;8.40;5.88;;;;;;;;;;5057929;28;20256;-14
2022/03/20 04:35:22;;;;;;;8.85;6.20;;;;;;;;;;5053568;28;21093;-14
2022/03/20 04:37:49;;;;;;;9.95;6.20;;;;;;;;;;5053290;28;20242;-14
2022/03/20 04:40:16;;;;;;;9.82;5.65;;;;;;;;;;5053214;28;20222;-14
2022/03/20 04:42:43;;;;;;;8.70;6.43;;;;;;;;;;5052741;28;20238;-14
2022/03/20 04:45:13;;;;;;;8.52;6.53;;;;;;;;;;5054287;28;20222;-14
2022/03/20 04:58:43;;;;;;;8.45;6.10;;;;;;;;;;5073199;28;20233;-14
2022/03/20 05:01:11;;;;;;;8.07;6.30;;;;;;;;;;5072988;28;21066;-14
2022/03/20 05:03:39;;;;;;;7.15;6.30;;;;;;;;;;5073460;28;20230;-14
2022/03/20 05:06:06;;;;;;;8.70;6.18;;;;;;;;;;5055723;28;20230;-14
2022/03/20 05:08:35;;;;;;;8.73;6.85;;;;;;;;;;5053064;28;20222;-14
2022/03/20 05:13:48;;;;;;;7.65;6.35;;;;;;;;;;5052416;28;20228;-14
2022/03/20 05:16:15;;;;;;;9.10;6.60;;;;;;;;;;5052574;28;20234;-14
2022/03/20 05:18:42;;;;;;;9.82;7.63;;;;;;;;;;5052624;28;20696;-14
2022/03/20 05:21:10;;;;;;;8.85;7.05;;;;;;;;;;5052349;28;20234;-14
2022/03/20 05:23:37;;;;;;;8.85;6.72;;;;;;;;;;5033818;28;20307;-14
2022/03/20 05:26:05;;;;;;;9.63;7.60;;;;;;;;;;5032584;28;20234;-14
2022/03/20 05:28:32;;;;;;;10.98;7.90;;;;;;;;;;5052295;28;20237;-14
2022/03/20 05:30:58;;;;;;;8.82;7.30;;;;;;;;;;5060300;28;20233;-14
2022/03/20 05:33:26;;;;;;;9.40;7.43;;;;;;;;;;5072840;28;20213;-14
2022/03/20 05:35:53;;;;;;;9.07;5.95;;;;;;;;;;5072626;28;20214;-14
2022/03/20 05:38:20;;;;;;;7.93;6.05;;;;;;;;;;5053542;28;20246;-14
2022/03/20 05:40:47;;;;;;;7.30;5.45;;;;;;;;;;5032423;28;21010;-14
2022/03/20 05:43:14;;;;;;;8.85;5.43;;;;;;;;;;5032599;28;20597;-14
2022/03/20 05:45:42;;;;;;;6.50;5.30;;;;;;;;;;5042905;28;20226;-14
2022/03/20 05:48:10;;;;;;;7.70;5.70;;;;;;;;;;5071621;28;20213;-14
2022/03/20 05:50:42;;;;;;;8.73;6.38;;;;;;;;;;5032955;28;20238;-14
2022/03/20 05:53:09;;;;;;;7.20;5.80;;;;;;;;;;5048262;28;20238;-15
2022/03/20 05:58:23;;;;;;;9.10;6.15;;;;;;;;;;5030380;28;21569;-14
2022/03/20 06:00:50;;;;;;;12.48;6.25;;;;;;;;;;5051560;28;20234;-14
2022/03/20 06:03:19;;;;;;;9.35;6.10;;;;;;;;;;5051792;28;20236;-14
2022/03/20 06:05:47;;;;;;;6.85;5.38;;;;;;;;;;5052043;28;20222;-14
2022/03/20 06:08:14;;;;;;;11.98;6.35;;;;;;;;;;5052113;28;20226;-14
2022/03/20 06:10:41;;;;;;;7.43;5.63;;;;;;;;;;5051384;28;20237;-14
2022/03/20 06:13:08;;;;;;;10.02;6.30;;;;;;;;;;5051989;28;20222;-14
2022/03/20 06:15:35;;;;;;;11.05;5.80;;;;;;;;;;5056011;28;20225;-14
2022/03/20 06:18:03;;;;;;;8.77;6.00;;;;;;;;;;5071882;28;20237;-14
2022/03/20 06:20:34;;;;;;;8.13;6.18;;;;;;;;;;5071828;28;20726;-14
2022/03/20 06:23:02;;;;;;;7.93;5.55;;;;;;;;;;5038380;28;20312;-15
2022/03/20 06:25:29;;;;;;;6.60;5.50;;;;;;;;;;5049416;28;20218;-14
2022/03/20 06:27:58;;;;;;;9.05;6.15;;;;;;;;;;5051664;28;20226;-14
2022/03/20 06:30:26;;;;;;;7.32;5.78;;;;;;;;;;5054760;28;20245;-15
2022/03/20 06:32:53;;;;;;;8.43;6.13;;;;;;;;;;5064462;28;20252;-14
2022/03/20 06:35:20;;;;;;;10.20;6.45;;;;;;;;;;5051654;28;20224;-14
2022/03/20 06:37:49;;;;;;;11.25;6.47;;;;;;;;;;5051710;28;20241;-15
2022/03/20 06:40:16;;;;;;;7.93;6.03;;;;;;;;;;5051694;28;20233;-14
2022/03/20 06:42:43;;;;;;;9.52;6.30;;;;;;;;;;5051966;28;20215;-14
2022/03/20 06:45:11;;;;;;;7.05;5.90;;;;;;;;;;5067456;28;20700;-14
2022/03/20 06:47:38;;;;;;;9.18;6.43;;;;;;;;;;5071944;28;20229;-14
2022/03/20 06:50:05;;;;;;;8.25;6.90;;;;;;;;;;5071690;28;20719;-14
2022/03/20 06:52:32;;;;;;;9.10;6.93;;;;;;;;;;5045935;28;20306;-14
2022/03/20 06:54:59;;;;;;;8.32;5.95;;;;;;;;;;5038047;28;20237;-15
2022/03/20 06:57:26;;;;;;;8.63;6.68;;;;;;;;;;5051357;28;20979;-14
2022/03/20 06:59:53;;;;;;;10.50;6.72;;;;;;;;;;5051291;28;20222;-14
2022/03/20 07:02:20;;;;;;;9.32;6.63;;;;;;;;;;5050818;28;20244;-14
2022/03/20 07:04:48;;;;;;;8.00;6.45;;;;;;;;;;5048606;28;20230;-14
2022/03/20 07:07:15;;;;;;;11.35;7.35;;;;;;;;;;5045024;28;20749;-14
2022/03/20 07:09:42;;;;;;;9.15;6.60;;;;;;;;;;5050695;28;20229;-14
2022/03/20 07:12:09;;;;;;;10.93;7.88;;;;;;;;;;5051178;28;20234;-14
2022/03/20 07:14:36;;;;;;;9.35;6.95;;;;;;;;;;5050533;28;20226;-14
2022/03/20 07:17:03;;;;;;;9.38;7.22;;;;;;;;;;5043530;28;20756;-14
2022/03/20 07:19:31;;;;;;;9.13;7.30;;;;;;;;;;5039222;28;20698;-14
2022/03/20 07:21:58;;;;;;;8.85;6.82;;;;;;;;;;5041719;28;20337;-15
2022/03/20 07:24:25;;;;;;;10.10;7.40;;;;;;;;;;5045070;28;20690;-14
2022/03/20 07:29:38;;;;;;;9.63;7.18;;;;;;;;;;5050587;28;20230;-15
2022/03/20 07:32:06;;;;;;;10.40;7.50;;;;;;;;;;5047644;28;20787;-14
2022/03/20 07:34:34;;;;;;;8.15;6.97;;;;;;;;;;5050700;28;20229;-14
2022/03/20 07:37:01;;;;;;;9.10;7.32;;;;;;;;;;5048866;28;20236;-15
2022/03/20 07:39:28;;;;;;;10.05;7.68;;;;;;;;;;5046809;28;20324;-15
2022/03/20 07:41:55;;;;;;;11.35;8.00;;;;;;;;;;5050973;28;20234;-14
2022/03/20 07:44:25;;;;;;;17.17;7.82;;;;;;;;;;5053822;28;20231;-14
2022/03/20 07:46:55;;;;;;;17.83;7.90;;;;;;;;;;5050285;28;20226;-14
2022/03/20 07:49:22;;;;;;;11.98;8.18;;;;;;;;;;5049081;28;20237;-14
2022/03/20 07:51:50;;;;;;;15.23;8.15;;;;;;;;;;5044542;28;20235;-14
2022/03/20 07:54:17;;;;;;;15.32;8.23;;;;;;;;;;5049075;28;20222;-14
2022/03/20 07:56:45;;;;;;;12.48;7.93;;;;;;;;;;5050912;28;20275;-14
2022/03/20 07:59:12;;;;;;;13.65;7.93;;;;;;;;;;5047972;28;20930;-14
2022/03/20 08:01:39;;;;;;;13.07;8.05;;;;;;;;;;5048048;28;20231;-14
2022/03/20 08:04:06;;;;;;;13.80;8.13;;;;;;;;;;5044683;28;20223;-14
2022/03/20 08:06:33;;;;;;;10.95;8.02;;;;;;;;;;5044627;28;20236;-14
2022/03/20 08:09:00;;;;;;;10.82;8.05;;;;;;;;;;5043317;28;20242;-14
2022/03/20 08:11:27;;;;;;;15.18;8.35;;;;;;;;;;5044098;28;20230;-14
2022/03/20 08:13:54;;;;;;;11.35;8.60;;;;;;;;;;5052202;28;20708;-14
2022/03/20 08:16:25;;;;;;;9.77;8.10;;;;;;;;;;5050801;28;20721;-14
2022/03/20 08:18:52;;;;;;;15.10;8.75;;;;;;;;;;5050498;28;20229;-14
2022/03/20 08:21:20;;;;;;;11.52;8.30;;;;;;;;;;5049638;28;20759;-14
2022/03/20 08:23:47;;;;;;;12.43;8.52;;;;;;;;;;5049610;28;20238;-14
2022/03/20 08:26:14;;;;;;;14.95;8.77;;;;;;;;;;5053078;28;20234;-14
2022/03/20 08:28:45;;;;;;;10.73;8.60;;;;;;;;;;5050080;28;20772;-14
2022/03/20 08:31:12;;;;;;;14.32;8.73;;;;;;;;;;5049630;28;20709;-14
2022/03/20 08:33:42;;;;;;;17.65;10.02;;;;;;;;;;5052145;28;20233;-14
2022/03/20 08:36:09;;;;;;;17.45;10.40;;;;;;;;;;5042803;28;20523;-14
2022/03/20 08:38:38;;;;;;;15.57;9.85;;;;;;;;;;5050554;28;20264;-14
2022/03/20 08:41:04;;;;;;;19.83;10.00;;;;;;;;;;5053345;28;20453;-14
2022/03/20 08:43:32;;;;;;;14.52;9.55;;;;;;;;;;5048863;28;20226;-14
2022/03/20 08:45:59;;;;;;;13.77;9.30;;;;;;;;;;5046492;28;20231;-14
2022/03/20 08:48:26;;;;;;;14.60;9.75;;;;;;;;;;5052655;28;20230;-14
2022/03/20 08:50:53;;;;;;;15.90;9.88;;;;;;;;;;5043535;28;20949;-14
2022/03/20 08:53:26;;;;;;;14.70;10.77;;;;;;;;;;5046203;28;20226;-14
2022/03/20 08:55:53;;;;;;;15.88;11.02;;;;;;;;;;5042711;28;20237;-14
2022/03/20 08:58:20;;;;;;;14.65;11.07;;;;;;;;;;5054738;28;20248;-14
2022/03/20 09:00:48;;;;;;;15.98;10.43;;;;;;;;;;5047833;28;20241;-14
2022/03/20 09:03:15;;;;;;;13.35;10.30;;;;;;;;;;5042051;28;20333;-14
2022/03/20 09:05:42;;;;;;;14.57;10.25;;;;;;;;;;5048253;28;20229;-14
2022/03/20 09:08:09;;;;;;;14.77;10.48;;;;;;;;;;5044387;28;20241;-14
2022/03/20 09:10:36;;;;;;;14.98;10.23;;;;;;;;;;5047047;28;20242;-14
2022/03/20 09:13:03;;;;;;;14.75;10.68;;;;;;;;;;5045591;28;20450;-14
2022/03/20 09:15:31;;;;;;;14.10;9.65;;;;;;;;;;5044040;28;20991;-14
2022/03/20 09:20:43;;;;;;;12.80;9.85;;;;;;;;;;5038392;28;20242;-14
2022/03/20 09:23:10;;;;;;;14.07;10.83;;;;;;;;;;5045625;28;20912;-14
2022/03/20 09:25:37;;;;;;;20.80;15.00;;;;;;;;;;5048080;28;21025;-14
2022/03/20 09:28:04;;;;;;;19.40;13.55;;;;;;;;;;5045303;28;20418;-15
2022/03/20 09:30:31;;;;;;;17.58;12.57;;;;;;;;;;5044364;28;20628;-14
2022/03/20 09:33:01;;;;;;;18.35;12.15;;;;;;;;;;5047860;28;20317;-14
2022/03/20 09:35:28;;;;;;;15.82;11.65;;;;;;;;;;5048156;28;20426;-14
2022/03/20 09:37:55;;;;;;;14.57;11.50;;;;;;;;;;5046200;28;20446;-14
2022/03/20 09:40:24;;;;;;;16.45;12.10;;;;;;;;;;5046944;28;20234;-14
2022/03/20 09:42:51;;;;;;;16.05;11.90;;;;;;;;;;5046629;28;20442;-14
2022/03/20 09:45:18;;;;;;;13.10;11.18;;;;;;;;;;5047234;28;20323;-14
2022/03/20 09:47:45;;;;;;;15.27;11.60;;;;;;;;;;5047638;28;20414;-14
2022/03/20 09:50:12;;;;;;;15.45;10.85;;;;;;;;;;5048108;28;20245;-14
2022/03/20 09:52:39;;;;;;;20.20;11.70;;;;;;;;;;5045676;28;20245;-14
2022/03/20 09:55:06;;;;;;;17.45;10.63;;;;;;;;;;5048345;28;20234;-14
2022/03/20 09:57:33;;;;;;;17.77;11.02;;;;;;;;;;5047813;28;20238;-14
2022/03/20 10:00:01;;;;;;;16.98;10.60;;;;;;;;;;5045583;28;20238;-15
2022/03/20 10:02:28;;;;;;;14.80;10.75;;;;;;;;;;5048492;28;20226;-14
2022/03/20 10:04:55;;;;;;;17.33;12.23;;;;;;;;;;5044398;28;20956;-15
2022/03/20 10:07:22;;;;;;;20.27;11.18;;;;;;;;;;5048202;28;20229;-14
2022/03/20 10:09:49;;;;;;;17.15;10.55;;;;;;;;;;5046438;28;20234;-14
2022/03/20 10:12:16;;;;;;;21.00;10.27;;;;;;;;;;5044672;28;20968;-14
2022/03/20 10:14:43;;;;;;;18.23;10.68;;;;;;;;;;5046792;28;20234;-14
2022/03/20 10:17:30;;;;;;;12.57;10.02;;;;;;;;;;5051399;28;20241;-14
2022/03/20 10:19:57;;;;;;;14.73;10.77;;;;;;;;;;5047704;28;20246;-14
2022/03/20 10:22:26;;;;;;;14.85;11.23;;;;;;;;;;5044358;28;20238;-14
2022/03/20 10:24:54;;;;;;;16.63;11.27;;;;;;;;;;5047246;28;20318;-14
2022/03/20 10:27:21;;;;;;;14.98;11.35;;;;;;;;;;5042884;28;20237;-14
2022/03/20 10:29:48;;;;;;;13.48;11.32;;;;;;;;;;5047087;28;20250;-14
2022/03/20 10:32:15;;;;;;;15.43;11.48;;;;;;;;;;5055225;28;20376;-14
2022/03/20 10:34:48;;;;;;;15.05;11.25;;;;;;;;;;5034835;28;20230;-14
2022/03/20 10:37:15;;;;;;;19.70;11.77;;;;;;;;;;5048605;28;20241;-15
2022/03/20 10:39:42;;;;;;;17.00;12.40;;;;;;;;;;5046566;28;20637;-14
2022/03/20 10:42:09;;;;;;;18.33;12.25;;;;;;;;;;5044465;28;20268;-16
2022/03/20 10:44:38;;;;;;;22.70;12.45;;;;;;;;;;5043158;28;20720;-14
2022/03/20 10:47:09;;;;;;;22.20;12.45;;;;;;;;;;5047199;28;20236;-14
2022/03/20 10:49:36;;;;;;;16.95;12.15;;;;;;;;;;5046743;28;20241;-14
2022/03/20 10:52:03;;;;;;;18.73;13.00;;;;;;;;;;5047961;28;20230;-14
2022/03/20 10:54:31;;;;;;;17.38;12.48;;;;;;;;;;5042854;28;20234;-14
2022/03/20 10:56:58;;;;;;;15.88;11.63;;;;;;;;;;5043281;28;20237;-14
2022/03/20 10:59:25;;;;;;;16.67;12.00;;;;;;;;;;5045779;28;20244;-14
2022/03/20 11:01:52;;;;;;;14.45;11.88;;;;;;;;;;5047725;28;20276;-14
2022/03/20 11:04:19;;;;;;;15.43;11.65;;;;;;;;;;5047172;28;20721;-14
2022/03/20 11:06:54;;;;;;;16.42;12.57;;;;;;;;;;5046367;28;21146;-14
2022/03/20 11:09:21;;;;;;;13.88;11.10;;;;;;;;;;5043728;28;20230;-15
2022/03/20 11:11:48;;;;;;;15.43;12.50;;;;;;;;;;5049872;28;20878;-14
2022/03/20 11:14:15;;;;;;;16.85;13.48;;;;;;;;;;5050596;28;20441;-14
2022/03/20 11:16:42;;;;;;;17.77;12.50;;;;;;;;;;5048986;28;21073;-14
2022/03/20 11:19:10;;;;;;;14.77;11.80;;;;;;;;;;5050815;28;20238;-14
2022/03/20 11:21:37;;;;;;;15.27;11.65;;;;;;;;;;5048218;28;20252;-14
2022/03/20 11:24:04;;;;;;;14.93;12.02;;;;;;;;;;5046960;28;20221;-14
2022/03/20 11:26:31;;;;;;;14.73;12.02;;;;;;;;;;5044518;28;20234;-14
2022/03/20 11:28:58;;;;;;;17.95;12.70;;;;;;;;;;5048229;28;20815;-14
2022/03/20 11:31:25;;;;;;;14.65;11.48;;;;;;;;;;5048006;28;20240;-14
2022/03/20 11:33:52;;;;;;;13.95;11.93;;;;;;;;;;5038528;28;20234;-14
2022/03/20 11:36:19;;;;;;;14.60;12.27;;;;;;;;;;5049461;28;20286;-14
2022/03/20 11:38:46;;;;;;;16.58;12.43;;;;;;;;;;5048330;28;20242;-14
2022/03/20 11:41:14;;;;;;;17.52;12.20;;;;;;;;;;5049130;28;20230;-14
2022/03/20 11:43:41;;;;;;;15.65;11.98;;;;;;;;;;5046074;28;20242;-14
2022/03/20 11:46:08;;;;;;;15.20;11.80;;;;;;;;;;5050836;28;20426;-14
2022/03/20 11:48:35;;;;;;;16.15;12.43;;;;;;;;;;5047917;28;20230;-14
2022/03/20 11:51:02;;;;;;;17.95;12.57;;;;;;;;;;5048989;28;20431;-14
2022/03/20 11:53:29;;;;;;;14.60;12.60;;;;;;;;;;5048410;28;20234;-14
2022/03/20 11:55:56;;;;;;;16.88;12.35;;;;;;;;;;5048195;28;20226;-14
2022/03/20 11:58:26;;;;;;;16.65;11.95;;;;;;;;;;5044303;28;20751;-14
2022/03/20 12:00:52;;;;;;;16.58;12.73;;;;;;;;;;5051367;28;20237;-14
2022/03/20 12:03:20;;;;;;;17.83;12.48;;;;;;;;;;5048384;28;20238;-14
2022/03/20 12:05:47;;;;;;;16.15;11.90;;;;;;;;;;5047911;28;20226;-14
2022/03/20 12:08:19;;;;;;;17.88;12.35;;;;;;;;;;5038526;28;20242;-15
2022/03/20 12:10:46;;;;;;;14.40;11.35;;;;;;;;;;5048927;28;20238;-14
2022/03/20 12:13:13;;;;;;;15.60;12.27;;;;;;;;;;5047783;28;20727;-14
2022/03/20 12:15:40;;;;;;;17.95;14.63;;;;;;;;;;5047052;28;20403;-14
2022/03/20 12:21:18;;;;;;;17.88;14.57;;;;;;;;;;5050220;28;20666;-14
2022/03/20 12:23:45;;;;;;;18.55;15.10;;;;;;;;;;5052239;28;20249;-14
2022/03/20 12:26:12;;;;;;;20.08;14.38;;;;;;;;;;5045798;28;20230;-14
2022/03/20 12:28:39;;;;;;;18.60;15.27;;;;;;;;;;5045200;28;20241;-14
2022/03/20 12:31:06;;;;;;;17.38;14.15;;;;;;;;;;5051746;28;20256;-14
2022/03/20 12:33:34;;;;;;;19.13;15.55;;;;;;;;;;5053061;28;20237;-14
2022/03/20 12:36:01;;;;;;;17.75;14.98;;;;;;;;;;5053435;28;20230;-14
2022/03/20 12:38:28;;;;;;;17.80;14.07;;;;;;;;;;5053093;28;21068;-14
2022/03/20 12:40:55;;;;;;;20.60;14.98;;;;;;;;;;5052813;28;20689;-14
2022/03/20 12:43:22;;;;;;;19.45;15.60;;;;;;;;;;5052990;28;20234;-14
2022/03/20 12:45:51;;;;;;;19.23;15.15;;;;;;;;;;5059517;28;20222;-14
2022/03/20 12:48:18;;;;;;;18.15;15.13;;;;;;;;;;5073694;28;20218;-14
2022/03/20 12:50:45;;;;;;;18.02;15.05;;;;;;;;;;5073559;28;20216;-14
2022/03/20 12:53:16;;;;;;;17.45;14.95;;;;;;;;;;5072509;28;20229;-14
2022/03/20 12:55:44;;;;;;;20.42;15.02;;;;;;;;;;5073427;28;20228;-14
2022/03/20 12:58:14;;;;;;;18.88;15.35;;;;;;;;;;5073639;28;20615;-14
2022/03/20 13:00:41;;;;;;;18.13;14.73;;;;;;;;;;5053334;28;20229;-14
2022/03/20 13:03:08;;;;;;;19.55;16.33;;;;;;;;;;5052463;28;20329;-14
2022/03/20 13:05:35;;;;;;;19.00;15.80;;;;;;;;;;5051961;28;20230;-14
2022/03/20 13:08:04;;;;;;;18.02;15.07;;;;;;;;;;5052881;28;20284;-14
2022/03/20 13:10:31;;;;;;;19.98;15.18;;;;;;;;;;5052607;28;20228;-14
2022/03/20 13:13:08;;;;;;;19.15;15.25;;;;;;;;;;5052789;28;20236;-14
2022/03/20 13:15:35;;;;;;;19.58;15.05;;;;;;;;;;5051870;28;20975;-14
2022/03/20 13:18:02;;;;;;;20.92;14.70;;;;;;;;;;5052876;28;20237;-14
2022/03/20 13:20:29;;;;;;;17.80;14.48;;;;;;;;;;5052649;28;20970;-14
2022/03/20 13:22:56;;;;;;;18.60;15.20;;;;;;;;;;5052523;28;20621;-14
2022/03/20 13:25:23;;;;;;;18.75;15.23;;;;;;;;;;5052567;28;20226;-14
2022/03/20 13:27:50;;;;;;;17.13;14.45;;;;;;;;;;5051450;28;21043;-14
2022/03/20 13:30:17;;;;;;;17.77;14.45;;;;;;;;;;5051630;28;20233;-14
2022/03/20 13:32:44;;;;;;;17.35;14.05;;;;;;;;;;5051479;28;20249;-14
2022/03/20 13:35:11;;;;;;;17.38;13.75;;;;;;;;;;5052534;28;20221;-14
2022/03/20 13:37:38;;;;;;;17.30;15.27;;;;;;;;;;5051812;28;20233;-14
2022/03/20 13:40:05;;;;;;;17.05;15.15;;;;;;;;;;5052166;28;20979;-14
2022/03/20 13:42:33;;;;;;;17.83;14.85;;;;;;;;;;5052578;28;20215;-14
2022/03/20 13:45:00;;;;;;;18.35;15.38;;;;;;;;;;5052440;28;20681;-14
2022/03/20 13:47:27;;;;;;;17.65;14.23;;;;;;;;;;5072174;28;20724;-14
2022/03/20 13:49:54;;;;;;;16.17;14.18;;;;;;;;;;5056761;28;20230;-14
2022/03/20 13:52:34;;;;;;;15.88;14.18;;;;;;;;;;5051859;28;20230;-14
2022/03/20 13:55:01;;;;;;;14.20;12.70;;;;;;;;;;5052127;28;20229;-14
2022/03/20 13:57:30;;;;;;;17.27;14.52;;;;;;;;;;5052345;28;20237;-14
2022/03/20 13:59:57;;;;;;;17.35;14.93;;;;;;;;;;5045697;28;20239;-14
2022/03/20 14:02:24;;;;;;;16.10;13.45;;;;;;;;;;5051121;28;20997;-14
2022/03/20 14:04:52;;;;;;;19.50;14.48;;;;;;;;;;5051758;28;20298;-14
2022/03/20 14:07:19;;;;;;;19.08;14.73;;;;;;;;;;5052682;28;20226;-14
2022/03/20 14:09:46;;;;;;;19.98;13.70;;;;;;;;;;5052179;28;20222;-14
2022/03/20 14:12:13;;;;;;;21.67;15.00;;;;;;;;;;5043192;28;20669;-15
2022/03/20 14:14:40;;;;;;;17.88;13.45;;;;;;;;;;5043620;28;20244;-14
2022/03/20 14:17:07;;;;;;;17.40;13.30;;;;;;;;;;5047034;28;20234;-14
2022/03/20 14:19:35;;;;;;;16.75;13.27;;;;;;;;;;5045897;28;20250;-14
2022/03/20 14:22:03;;;;;;;16.73;13.02;;;;;;;;;;5044397;28;20245;-13
2022/03/20 14:24:32;;;;;;;15.45;12.57;;;;;;;;;;5043112;28;20234;-14
2022/03/20 14:27:00;;;;;;;17.80;13.30;;;;;;;;;;5045253;28;21178;-14
2022/03/20 14:40:31;;;;;;;15.85;12.68;;;;;;;;;;5039478;28;20751;-14
2022/03/20 14:42:58;;;;;;;17.98;13.27;;;;;;;;;;5044721;28;21168;-13
2022/03/20 14:45:27;;;;;;;16.45;12.93;;;;;;;;;;5045443;28;20351;-15
2022/03/20 14:47:56;;;;;;;21.13;13.63;;;;;;;;;;5045217;28;20720;-13
2022/03/20 14:50:23;;;;;;;16.15;13.10;;;;;;;;;;5041353;28;20274;-14
2022/03/20 14:52:52;;;;;;;20.08;13.55;;;;;;;;;;5037735;28;20233;-13
2022/03/20 14:55:19;;;;;;;17.23;13.43;;;;;;;;;;5042060;28;21060;-13
2022/03/20 14:57:46;;;;;;;15.07;12.75;;;;;;;;;;5041028;28;20246;-13
2022/03/20 15:00:14;;;;;;;16.35;13.60;;;;;;;;;;5041500;28;20430;-13
2022/03/20 15:02:41;;;;;;;15.45;12.82;;;;;;;;;;5034514;28;20231;-14
2022/03/20 15:05:09;;;;;;;17.38;12.77;;;;;;;;;;5041424;28;20233;-13
2022/03/20 15:07:40;;;;;;;16.17;12.20;;;;;;;;;;5038051;28;20245;-14
2022/03/20 15:12:53;;;;;;;16.33;12.30;;;;;;;;;;5037433;28;20614;-13
2022/03/20 15:15:22;;;;;;;21.15;16.60;;;;;;;;;;5043117;28;20233;-13
2022/03/20 15:17:49;;;;;;;18.60;13.60;;;;;;;;;;5042042;28;20240;-14
2022/03/20 15:20:16;;;;;;;20.08;12.35;;;;;;;;;;5043333;28;20242;-13